createdAt,value
2022-10-28T00:00:18.340Z,101686.69
2022-10-28T00:00:50.299Z,101682.56
2022-10-28T00:01:24.234Z,101687.50
2022-10-28T00:01:56.693Z,101687.94
2022-10-28T00:02:28.326Z,101689.78
2022-10-28T00:03:01.919Z,101691.63
2022-10-28T00:03:33.813Z,101694.31
2022-10-28T00:04:05.370Z,101701.50
2022-10-28T00:04:36.910Z,101691.03
2022-10-28T00:05:09.052Z,101689.16
2022-10-28T00:05:40.551Z,101687.09
2022-10-28T00:06:15.459Z,101691.22
2022-10-28T00:06:47.093Z,101688.31
2022-10-28T00:07:18.675Z,101681.09
2022-10-28T00:07:50.379Z,101685.44
2022-10-28T00:08:22.183Z,101684.59
2022-10-28T00:08:54.284Z,101676.78
2022-10-28T00:09:25.862Z,101681.09
2022-10-28T00:09:57.394Z,101674.72
2022-10-28T00:10:29.173Z,101677.41
2022-10-28T00:11:06.734Z,101676.38
2022-10-28T00:11:38.503Z,101676.38
2022-10-28T00:12:10.015Z,101674.13
2022-10-28T00:12:41.541Z,101676.78
2022-10-28T00:13:13.014Z,101674.34
2022-10-28T00:13:45.604Z,101674.34
2022-10-28T00:14:17.093Z,101675.97
2022-10-28T00:14:48.698Z,101677.22
2022-10-28T00:15:20.437Z,101678.47
2022-10-28T00:15:51.917Z,101672.31
2022-10-28T00:16:25.864Z,101673.94
2022-10-28T00:16:57.388Z,101676.19
2022-10-28T00:17:31.541Z,101673.53
2022-10-28T00:18:03.144Z,101674.38
2022-10-28T00:18:35.030Z,101669.84
2022-10-28T00:19:09.855Z,101672.69
2022-10-28T00:19:41.369Z,101677.22
2022-10-28T00:20:12.991Z,101670.25
2022-10-28T00:20:44.530Z,101668.59
2022-10-28T00:21:19.208Z,101676.03
2022-10-28T00:21:50.720Z,101676.84
2022-10-28T00:22:22.497Z,101673.56
2022-10-28T00:22:54.215Z,101671.09
2022-10-28T00:23:25.759Z,101676.44
2022-10-28T00:23:57.585Z,101671.09
2022-10-28T00:24:31.954Z,101681.78
2022-10-28T00:25:03.997Z,101682.63
2022-10-28T00:25:35.871Z,101680.97
2022-10-28T00:26:12.690Z,101685.50
2022-10-28T00:26:44.277Z,101683.25
2022-10-28T00:27:15.783Z,101677.31
2022-10-28T00:27:47.290Z,101681.44
2022-10-28T00:28:21.620Z,101681.44
2022-10-28T00:28:55.374Z,101686.97
2022-10-28T00:29:26.924Z,101680.19
2022-10-28T00:29:58.598Z,101678.34
2022-10-28T00:31:05.286Z,101674.84
2022-10-28T00:31:38.096Z,101676.09
2022-10-28T00:32:09.584Z,101674.44
2022-10-28T00:32:41.069Z,101675.25
2022-10-28T00:33:12.577Z,101679.19
2022-10-28T00:33:44.850Z,101672.19
2022-10-28T00:34:18.513Z,101674.88
2022-10-28T00:34:50.113Z,101675.88
2022-10-28T00:35:21.825Z,101675.25
2022-10-28T00:35:53.330Z,101675.47
2022-10-28T00:36:30.115Z,101676.91
2022-10-28T00:37:01.648Z,101668.66
2022-10-28T00:37:33.149Z,101672.81
2022-10-28T00:38:04.738Z,101665.59
2022-10-28T00:38:36.355Z,101663.31
2022-10-28T00:39:11.694Z,101672.38
2022-10-28T00:39:43.231Z,101658.19
2022-10-28T00:40:14.730Z,101670.94
2022-10-28T00:40:46.218Z,101666.63
2022-10-28T00:41:21.915Z,101671.56
2022-10-28T00:41:56.520Z,101671.97
2022-10-28T00:42:28.424Z,101662.53
2022-10-28T00:42:59.918Z,101673.25
2022-10-28T00:43:42.138Z,101673.69
2022-10-28T00:44:51.236Z,101670.38
2022-10-28T00:45:22.882Z,101670.38
2022-10-28T00:45:54.483Z,101665.88
2022-10-28T00:46:30.558Z,101667.50
2022-10-28T00:47:02.083Z,101666.25
2022-10-28T00:47:41.257Z,101661.75
2022-10-28T00:48:12.785Z,101666.88
2022-10-28T00:48:46.122Z,101670.16
2022-10-28T00:49:32.297Z,101665.84
2022-10-28T00:50:12.942Z,101663.78
2022-10-28T00:50:51.919Z,101662.75
2022-10-28T00:51:25.107Z,101667.06
2022-10-28T00:52:08.312Z,101667.88
2022-10-28T00:52:40.053Z,101664.16
2022-10-28T00:53:16.171Z,101669.53
2022-10-28T00:53:48.305Z,101668.28
2022-10-28T00:54:20.110Z,101659.81
2022-10-28T00:54:52.478Z,101663.31
2022-10-28T00:55:24.651Z,101662.31
2022-10-28T00:55:57.643Z,101663.13
2022-10-28T00:56:33.647Z,101672.81
2022-10-28T00:57:10.721Z,101663.75
2022-10-28T00:57:42.909Z,101662.72
2022-10-28T00:58:15.004Z,101666.22
2022-10-28T00:58:47.199Z,101662.72
2022-10-28T00:59:26.517Z,101661.91
2022-10-28T00:59:58.741Z,101664.56
2022-10-28T01:00:30.249Z,101662.50
2022-10-28T01:01:02.045Z,101657.56
2022-10-28T01:01:33.641Z,101665.59
2022-10-28T01:02:05.775Z,101662.09
2022-10-28T01:02:48.580Z,101656.75
2022-10-28T01:03:20.453Z,101661.06
2022-10-28T01:03:52.248Z,101659.22
2022-10-28T01:04:23.795Z,101660.25
2022-10-28T01:04:55.442Z,101653.88
2022-10-28T01:05:29.311Z,101657.16
2022-10-28T01:06:02.137Z,101651.63
2022-10-28T01:06:33.673Z,101656.56
2022-10-28T01:07:06.741Z,101652.25
2022-10-28T01:07:38.435Z,101659.69
2022-10-28T01:08:10.158Z,101649.19
2022-10-28T01:08:41.665Z,101654.75
2022-10-28T01:09:13.451Z,101650.22
2022-10-28T01:09:45.226Z,101651.03
2022-10-28T01:10:16.850Z,101650.03
2022-10-28T01:11:03.265Z,101651.50
2022-10-28T01:11:46.103Z,101644.91
2022-10-28T01:12:32.088Z,101649.44
2022-10-28T01:13:21.105Z,101644.69
2022-10-28T01:14:15.457Z,101646.16
2022-10-28T01:15:17.836Z,101647.38
2022-10-28T01:16:11.886Z,101645.31
2022-10-28T01:16:58.700Z,101639.38
2022-10-28T01:18:00.808Z,101644.50
2022-10-28T01:18:48.338Z,101641.25
2022-10-28T01:19:37.921Z,101641.63
2022-10-28T01:20:24.311Z,101642.88
2022-10-28T01:21:13.018Z,101641.84
2022-10-28T01:22:07.534Z,101636.50
2022-10-28T01:22:45.070Z,101635.69
2022-10-28T01:23:21.640Z,101642.47
2022-10-28T01:24:11.601Z,101640.00
2022-10-28T01:25:16.834Z,101637.97
2022-10-28T01:25:59.443Z,101638.78
2022-10-28T01:26:43.110Z,101640.81
2022-10-28T01:27:59.314Z,101631.34
2022-10-28T01:28:45.634Z,101630.53
2022-10-28T01:29:34.745Z,101629.91
2022-10-28T01:30:08.373Z,101628.88
2022-10-28T01:31:19.519Z,101623.53
2022-10-28T01:31:57.770Z,101629.91
2022-10-28T01:32:39.027Z,101628.47
2022-10-28T01:33:26.404Z,101621.28
2022-10-28T01:34:09.672Z,101616.34
2022-10-28T01:35:13.339Z,101614.09
2022-10-28T01:35:53.095Z,101611.44
2022-10-28T01:36:51.219Z,101616.78
2022-10-28T01:37:33.312Z,101609.16
2022-10-28T01:38:20.084Z,101615.75
2022-10-28T01:38:58.582Z,101614.09
2022-10-28T01:39:49.256Z,101614.72
2022-10-28T01:40:35.455Z,101612.84
2022-10-28T01:41:11.530Z,101608.31
2022-10-28T01:41:56.550Z,101603.00
2022-10-28T01:42:31.039Z,101612.66
2022-10-28T01:43:06.739Z,101609.16
2022-10-28T01:43:59.125Z,101605.88
2022-10-28T01:45:11.845Z,101603.41
2022-10-28T01:45:46.018Z,101597.63
2022-10-28T01:46:22.984Z,101603.41
2022-10-28T01:47:04.917Z,101598.06
2022-10-28T01:47:42.673Z,101600.13
2022-10-28T01:48:20.140Z,101601.78
2022-10-28T01:48:56.995Z,101597.28
2022-10-28T01:49:35.506Z,101593.13
2022-10-28T01:50:15.304Z,101599.94
2022-10-28T01:50:53.882Z,101595.63
2022-10-28T01:51:55.214Z,101606.94
2022-10-28T01:52:28.959Z,101596.84
2022-10-28T01:53:04.101Z,101597.66
2022-10-28T01:53:38.883Z,101596.84
2022-10-28T01:54:11.727Z,101595.22
2022-10-28T01:54:47.266Z,101592.31
2022-10-28T01:55:23.020Z,101589.44
2022-10-28T01:55:55.819Z,101600.13
2022-10-28T01:56:31.558Z,101603.84
2022-10-28T01:57:04.432Z,101599.53
2022-10-28T01:57:37.810Z,101601.16
2022-10-28T01:58:12.454Z,101607.53
2022-10-28T01:58:44.333Z,101604.25
2022-10-28T01:59:27.216Z,101600.97
2022-10-28T01:59:59.415Z,101601.41
2022-10-28T02:00:32.321Z,101606.75
2022-10-28T02:01:06.792Z,101601.81
2022-10-28T02:01:38.466Z,101603.88
2022-10-28T02:02:10.166Z,101602.25
2022-10-28T02:02:42.806Z,101606.94
2022-10-28T02:03:16.311Z,101602.03
2022-10-28T02:03:48.121Z,101599.34
2022-10-28T02:04:19.698Z,101599.34
2022-10-28T02:04:51.453Z,101597.72
2022-10-28T02:05:38.465Z,101600.78
2022-10-28T02:06:17.536Z,101591.56
2022-10-28T02:06:53.588Z,101596.69
2022-10-28T02:07:25.228Z,101598.94
2022-10-28T02:07:59.724Z,101595.66
2022-10-28T02:08:57.095Z,101594.84
2022-10-28T02:09:34.543Z,101590.75
2022-10-28T02:10:10.031Z,101591.56
2022-10-28T02:10:51.428Z,101591.56
2022-10-28T02:11:29.804Z,101589.09
2022-10-28T02:12:16.415Z,101595.25
2022-10-28T02:12:51.382Z,101596.91
2022-10-28T02:13:26.622Z,101600.19
2022-10-28T02:14:22.227Z,101604.06
2022-10-28T02:15:31.101Z,101595.88
2022-10-28T02:16:15.904Z,101599.38
2022-10-28T02:16:51.737Z,101596.09
2022-10-28T02:17:48.149Z,101601.03
2022-10-28T02:18:43.392Z,101596.09
2022-10-28T02:19:42.518Z,101596.09
2022-10-28T02:20:35.182Z,101596.09
2022-10-28T02:21:28.502Z,101596.72
2022-10-28T02:22:33.085Z,101599.38
2022-10-28T02:23:34.109Z,101601.44
2022-10-28T02:24:12.875Z,101594.47
2022-10-28T02:24:55.945Z,101592.41
2022-10-28T02:25:34.931Z,101595.09
2022-10-28T02:26:15.606Z,101589.97
2022-10-28T02:26:53.232Z,101586.66
2022-10-28T02:27:39.815Z,101588.31
2022-10-28T02:28:17.070Z,101589.53
2022-10-28T02:29:01.025Z,101594.88
2022-10-28T02:29:41.795Z,101595.31
2022-10-28T02:30:21.874Z,101591.78
2022-10-28T02:30:58.158Z,101593.00
2022-10-28T02:31:33.579Z,101595.06
2022-10-28T02:32:08.535Z,101594.88
2022-10-28T02:32:44.520Z,101600.44
2022-10-28T02:33:22.781Z,101599.59
2022-10-28T02:33:58.537Z,101598.56
2022-10-28T02:34:33.423Z,101593.25
2022-10-28T02:35:10.574Z,101592.41
2022-10-28T02:35:49.121Z,101594.06
2022-10-28T02:36:22.361Z,101589.13
2022-10-28T02:36:55.460Z,101595.28
2022-10-28T02:37:30.192Z,101596.13
2022-10-28T02:38:06.062Z,101587.06
2022-10-28T02:38:42.811Z,101597.31
2022-10-28T02:39:14.929Z,101595.31
2022-10-28T02:39:49.391Z,101592.19
2022-10-28T02:40:24.933Z,101593.22
2022-10-28T02:41:00.460Z,101589.97
2022-10-28T02:42:05.243Z,101586.88
2022-10-28T02:42:38.988Z,101587.47
2022-10-28T02:43:13.365Z,101588.31
2022-10-28T02:43:45.857Z,101594.88
2022-10-28T02:44:21.825Z,101595.31
2022-10-28T02:45:00.277Z,101586.25
2022-10-28T02:45:35.846Z,101588.28
2022-10-28T02:46:08.356Z,101588.69
2022-10-28T02:46:43.799Z,101580.09
2022-10-28T02:47:19.484Z,101581.72
2022-10-28T02:48:26.675Z,101587.69
2022-10-28T02:49:02.452Z,101578.03
2022-10-28T02:49:36.133Z,101582.56
2022-10-28T02:50:11.033Z,101578.84
2022-10-28T02:50:47.005Z,101581.75
2022-10-28T02:51:21.038Z,101586.25
2022-10-28T02:51:56.090Z,101579.47
2022-10-28T02:52:30.119Z,101571.47
2022-10-28T02:53:03.996Z,101582.56
2022-10-28T02:53:53.259Z,101570.47
2022-10-28T02:54:28.244Z,101583.00
2022-10-28T02:55:01.381Z,101580.94
2022-10-28T02:55:37.587Z,101569.44
2022-10-28T02:56:10.091Z,101576.63
2022-10-28T02:56:56.347Z,101581.16
2022-10-28T02:57:32.466Z,101576.41
2022-10-28T02:58:05.320Z,101569.84
2022-10-28T02:58:40.828Z,101574.38
2022-10-28T02:59:13.034Z,101569.44
2022-10-28T02:59:52.391Z,101569.44
2022-10-28T03:00:24.997Z,101566.75
2022-10-28T03:00:56.602Z,101567.78
2022-10-28T03:01:28.408Z,101575.19
2022-10-28T03:02:00.117Z,101573.53
2022-10-28T03:02:31.905Z,101569.22
2022-10-28T03:03:03.784Z,101562.47
2022-10-28T03:03:35.369Z,101566.97
2022-10-28T03:04:07.352Z,101568.16
2022-10-28T03:04:38.861Z,101567.53
2022-10-28T03:05:10.606Z,101570.41
2022-10-28T03:05:42.276Z,101564.88
2022-10-28T03:06:13.925Z,101569.38
2022-10-28T03:06:45.570Z,101565.69
2022-10-28T03:07:17.154Z,101565.69
2022-10-28T03:07:48.712Z,101556.31
2022-10-28T03:08:20.767Z,101562.03
2022-10-28T03:08:52.425Z,101557.94
2022-10-28T03:09:24.108Z,101564.09
2022-10-28T03:09:55.784Z,101565.53
2022-10-28T03:10:27.326Z,101566.13
2022-10-28T03:10:58.833Z,101565.31
2022-10-28T03:11:30.377Z,101572.72
2022-10-28T03:12:01.862Z,101571.28
2022-10-28T03:12:33.682Z,101569.03
2022-10-28T03:13:05.259Z,101567.19
2022-10-28T03:13:36.770Z,101568.22
2022-10-28T03:14:10.725Z,101568.63
2022-10-28T03:14:44.804Z,101571.84
2022-10-28T03:15:16.417Z,101570.63
2022-10-28T03:15:47.939Z,101567.34
2022-10-28T03:16:19.456Z,101570.81
2022-10-28T03:16:50.950Z,101569.78
2022-10-28T03:17:22.450Z,101560.75
2022-10-28T03:17:54.246Z,101564.50
2022-10-28T03:18:26.063Z,101560.41
2022-10-28T03:18:57.748Z,101564.28
2022-10-28T03:19:29.702Z,101555.03
2022-10-28T03:20:01.196Z,101555.03
2022-10-28T03:20:32.738Z,101567.94
2022-10-28T03:21:04.316Z,101561.78
2022-10-28T03:21:35.820Z,101560.38
2022-10-28T03:22:07.354Z,101558.72
2022-10-28T03:22:38.836Z,101559.13
2022-10-28T03:23:10.639Z,101562.84
2022-10-28T03:23:42.194Z,101554.63
2022-10-28T03:24:13.697Z,101567.56
2022-10-28T03:24:45.210Z,101561.19
2022-10-28T03:25:16.713Z,101562.44
2022-10-28T03:25:48.326Z,101559.97
2022-10-28T03:26:20.034Z,101564.69
2022-10-28T03:26:51.641Z,101556.44
2022-10-28T03:27:23.199Z,101559.56
2022-10-28T03:27:54.764Z,101559.56
2022-10-28T03:28:26.279Z,101556.66
2022-10-28T03:28:57.832Z,101558.31
2022-10-28T03:29:29.361Z,101557.28
2022-10-28T03:30:01.209Z,101560.38
2022-10-28T03:30:32.808Z,101556.88
2022-10-28T03:31:04.626Z,101559.56
2022-10-28T03:31:36.362Z,101556.88
2022-10-28T03:32:07.983Z,101562.63
2022-10-28T03:32:41.808Z,101561.59
2022-10-28T03:33:13.385Z,101556.25
2022-10-28T03:33:44.948Z,101562.81
2022-10-28T03:34:16.489Z,101559.34
2022-10-28T03:34:47.993Z,101564.66
2022-10-28T03:35:19.580Z,101559.13
2022-10-28T03:35:51.099Z,101560.97
2022-10-28T03:36:22.614Z,101563.66
2022-10-28T03:36:54.132Z,101559.94
2022-10-28T03:37:25.616Z,101563.66
2022-10-28T03:37:57.193Z,101559.56
2022-10-28T03:38:28.883Z,101560.38
2022-10-28T03:39:00.454Z,101562.00
2022-10-28T03:39:32.122Z,101562.81
2022-10-28T03:40:07.808Z,101566.13
2022-10-28T03:40:39.330Z,101562.41
2022-10-28T03:41:11.094Z,101568.59
2022-10-28T03:41:42.596Z,101561.59
2022-10-28T03:42:14.226Z,101562.63
2022-10-28T03:42:45.844Z,101558.31
2022-10-28T03:43:18.004Z,101564.66
2022-10-28T03:43:49.613Z,101564.69
2022-10-28T03:44:21.137Z,101564.91
2022-10-28T03:44:52.683Z,101569.59
2022-10-28T03:45:24.290Z,101558.75
2022-10-28T03:45:55.823Z,101564.28
2022-10-28T03:46:29.064Z,101566.13
2022-10-28T03:47:02.626Z,101559.56
2022-10-28T03:47:34.793Z,101560.97
2022-10-28T03:48:06.700Z,101564.06
2022-10-28T03:48:38.291Z,101570.22
2022-10-28T03:49:10.046Z,101557.50
2022-10-28T03:49:41.623Z,101563.88
2022-10-28T03:50:13.221Z,101566.31
2022-10-28T03:50:44.772Z,101568.97
2022-10-28T03:51:16.280Z,101568.97
2022-10-28T03:51:48.864Z,101573.50
2022-10-28T03:52:20.417Z,101565.28
2022-10-28T03:52:52.192Z,101567.34
2022-10-28T03:53:27.527Z,101568.59
2022-10-28T03:54:00.676Z,101566.53
2022-10-28T03:54:32.190Z,101560.38
2022-10-28T03:55:04.025Z,101560.78
2022-10-28T03:55:35.584Z,101566.31
2022-10-28T03:56:07.415Z,101566.53
2022-10-28T03:56:40.593Z,101562.84
2022-10-28T03:57:12.248Z,101561.19
2022-10-28T03:57:43.794Z,101562.41
2022-10-28T03:58:15.529Z,101559.94
2022-10-28T03:58:48.678Z,101560.75
2022-10-28T03:59:20.509Z,101557.91
2022-10-28T03:59:52.106Z,101564.47
2022-10-28T04:00:23.663Z,101555.63
2022-10-28T04:00:55.999Z,101552.13
2022-10-28T04:01:27.632Z,101551.53
2022-10-28T04:01:59.371Z,101555.44
2022-10-28T04:02:31.107Z,101559.75
2022-10-28T04:03:02.648Z,101563.44
2022-10-28T04:03:34.303Z,101559.94
2022-10-28T04:04:06.162Z,101562.22
2022-10-28T04:04:37.657Z,101565.72
2022-10-28T04:05:09.373Z,101566.53
2022-10-28T04:05:40.869Z,101564.06
2022-10-28T04:06:12.420Z,101559.94
2022-10-28T04:06:43.902Z,101558.31
2022-10-28T04:07:15.501Z,101564.06
2022-10-28T04:07:47.520Z,101561.81
2022-10-28T04:08:20.239Z,101558.53
2022-10-28T04:08:51.931Z,101559.13
2022-10-28T04:09:23.505Z,101553.81
2022-10-28T04:09:55.054Z,101563.66
2022-10-28T04:10:26.536Z,101560.78
2022-10-28T04:10:58.087Z,101551.75
2022-10-28T04:11:29.623Z,101561.59
2022-10-28T04:12:40.628Z,101556.25
2022-10-28T04:13:12.900Z,101563.66
2022-10-28T04:13:44.490Z,101560.38
2022-10-28T04:14:16.033Z,101559.75
2022-10-28T04:14:47.555Z,101558.72
2022-10-28T04:15:19.071Z,101564.47
2022-10-28T04:15:50.563Z,101556.66
2022-10-28T04:16:22.361Z,101557.28
2022-10-28T04:16:54.667Z,101558.31
2022-10-28T04:17:26.288Z,101553.78
2022-10-28T04:17:58.093Z,101562.22
2022-10-28T04:18:29.741Z,101564.06
2022-10-28T04:19:01.222Z,101562.22
2022-10-28T04:19:32.724Z,101552.75
2022-10-28T04:20:04.638Z,101557.91
2022-10-28T04:20:36.399Z,101555.84
2022-10-28T04:21:07.983Z,101550.91
2022-10-28T04:21:39.494Z,101550.09
2022-10-28T04:22:10.985Z,101550.91
2022-10-28T04:22:42.626Z,101554.81
2022-10-28T04:23:18.449Z,101554.22
2022-10-28T04:23:50.240Z,101559.56
2022-10-28T04:24:21.749Z,101554.22
2022-10-28T04:24:54.672Z,101551.94
2022-10-28T04:25:27.310Z,101545.16
2022-10-28T04:25:58.815Z,101547.41
2022-10-28T04:26:31.958Z,101559.53
2022-10-28T04:27:03.693Z,101554.38
2022-10-28T04:27:35.215Z,101552.94
2022-10-28T04:28:06.732Z,101557.47
2022-10-28T04:28:38.203Z,101559.53
2022-10-28T04:29:09.710Z,101563.25
2022-10-28T04:29:41.251Z,101561.41
2022-10-28T04:30:14.362Z,101565.50
2022-10-28T04:30:48.610Z,101565.72
2022-10-28T04:31:20.155Z,101565.28
2022-10-28T04:31:52.383Z,101561.19
2022-10-28T04:32:24.063Z,101560.38
2022-10-28T04:32:55.564Z,101559.13
2022-10-28T04:33:27.217Z,101561.19
2022-10-28T04:33:58.811Z,101559.56
2022-10-28T04:34:30.311Z,101566.94
2022-10-28T04:35:01.893Z,101563.25
2022-10-28T04:35:33.456Z,101565.94
2022-10-28T04:36:05.134Z,101559.94
2022-10-28T04:36:36.783Z,101561.41
2022-10-28T04:37:08.346Z,101563.25
2022-10-28T04:37:41.211Z,101564.91
2022-10-28T04:38:14.278Z,101569.41
2022-10-28T04:38:46.060Z,101556.69
2022-10-28T04:39:17.675Z,101563.03
2022-10-28T04:39:49.263Z,101563.03
2022-10-28T04:40:20.786Z,101562.00
2022-10-28T04:40:52.316Z,101557.50
2022-10-28T04:41:23.837Z,101560.38
2022-10-28T04:41:55.408Z,101564.25
2022-10-28T04:42:27.273Z,101561.59
2022-10-28T04:42:58.784Z,101556.66
2022-10-28T04:43:30.291Z,101559.94
2022-10-28T04:44:01.847Z,101561.59
2022-10-28T04:44:33.351Z,101553.81
2022-10-28T04:45:05.312Z,101560.16
2022-10-28T04:45:37.408Z,101554.63
2022-10-28T04:46:08.915Z,101552.16
2022-10-28T04:46:40.712Z,101553.19
2022-10-28T04:47:12.318Z,101555.25
2022-10-28T04:47:43.836Z,101550.72
2022-10-28T04:48:15.595Z,101554.22
2022-10-28T04:48:48.153Z,101549.25
2022-10-28T04:49:19.743Z,101543.91
2022-10-28T04:49:51.510Z,101550.91
2022-10-28T04:50:23.066Z,101551.13
2022-10-28T04:50:57.107Z,101553.41
2022-10-28T04:51:28.620Z,101551.34
2022-10-28T04:52:00.214Z,101544.56
2022-10-28T04:52:32.717Z,101545.38
2022-10-28T04:53:04.556Z,101546.19
2022-10-28T04:53:36.061Z,101551.53
2022-10-28T04:54:07.762Z,101547.22
2022-10-28T04:54:39.406Z,101550.28
2022-10-28T04:55:10.920Z,101554.00
2022-10-28T04:55:42.451Z,101548.66
2022-10-28T04:56:13.959Z,101547.00
2022-10-28T04:56:45.451Z,101548.47
2022-10-28T04:57:17.229Z,101546.81
2022-10-28T04:57:59.010Z,101543.31
2022-10-28T04:58:30.524Z,101543.53
2022-10-28T04:59:02.092Z,101557.06
2022-10-28T04:59:33.812Z,101550.09
2022-10-28T05:00:06.315Z,101547.00
2022-10-28T05:00:37.944Z,101542.69
2022-10-28T05:01:10.490Z,101541.88
2022-10-28T05:01:42.153Z,101546.00
2022-10-28T05:02:13.877Z,101538.00
2022-10-28T05:02:46.200Z,101541.03
2022-10-28T05:03:17.837Z,101541.91
2022-10-28T05:03:49.364Z,101551.31
2022-10-28T05:04:20.864Z,101547.41
2022-10-28T05:04:52.405Z,101550.09
2022-10-28T05:05:23.952Z,101544.75
2022-10-28T05:05:55.434Z,101551.75
2022-10-28T05:06:26.924Z,101543.94
2022-10-28T05:06:58.458Z,101548.47
2022-10-28T05:07:30.072Z,101546.63
2022-10-28T05:08:02.517Z,101547.66
2022-10-28T05:08:34.024Z,101546.22
2022-10-28T05:09:05.613Z,101547.84
2022-10-28T05:09:37.195Z,101545.59
2022-10-28T05:10:09.109Z,101549.31
2022-10-28T05:10:40.602Z,101544.78
2022-10-28T05:11:12.077Z,101546.44
2022-10-28T05:11:43.607Z,101548.06
2022-10-28T05:12:15.163Z,101548.91
2022-10-28T05:12:46.834Z,101546.44
2022-10-28T05:13:18.783Z,101546.03
2022-10-28T05:13:53.055Z,101549.50
2022-10-28T05:14:24.633Z,101553.00
2022-10-28T05:14:59.142Z,101554.63
2022-10-28T05:15:31.425Z,101558.53
2022-10-28T05:16:03.018Z,101556.09
2022-10-28T05:16:34.535Z,101552.59
2022-10-28T05:17:06.141Z,101558.97
2022-10-28T05:17:41.490Z,101554.84
2022-10-28T05:18:13.007Z,101558.34
2022-10-28T05:19:21.050Z,101548.50
2022-10-28T05:19:52.578Z,101560.41
2022-10-28T05:20:24.347Z,101555.06
2022-10-28T05:20:55.963Z,101567.38
2022-10-28T05:21:27.541Z,101555.25
2022-10-28T05:21:59.035Z,101556.91
2022-10-28T05:22:30.589Z,101559.16
2022-10-28T05:23:02.139Z,101557.53
2022-10-28T05:23:33.722Z,101557.94
2022-10-28T05:24:05.553Z,101560.34
2022-10-28T05:24:37.022Z,101553.78
2022-10-28T05:25:08.680Z,101552.75
2022-10-28T05:25:40.665Z,101552.13
2022-10-28T05:26:12.194Z,101548.03
2022-10-28T05:26:43.800Z,101552.75
2022-10-28T05:27:16.213Z,101553.78
2022-10-28T05:27:47.802Z,101549.47
2022-10-28T05:28:19.387Z,101556.25
2022-10-28T05:28:51.194Z,101552.75
2022-10-28T05:29:22.689Z,101557.06
2022-10-28T05:29:54.229Z,101555.84
2022-10-28T05:30:26.787Z,101551.34
2022-10-28T05:30:58.483Z,101547.84
2022-10-28T05:31:30.000Z,101558.31
2022-10-28T05:32:01.716Z,101555.03
2022-10-28T05:32:33.417Z,101546.19
2022-10-28T05:33:04.936Z,101548.66
2022-10-28T05:33:36.476Z,101556.25
2022-10-28T05:34:08.006Z,101550.09
2022-10-28T05:34:39.532Z,101549.69
2022-10-28T05:35:11.487Z,101546.00
2022-10-28T05:35:43.055Z,101546.00
2022-10-28T05:36:14.550Z,101549.91
2022-10-28T05:36:46.125Z,101546.41
2022-10-28T05:37:17.644Z,101547.44
2022-10-28T05:37:49.228Z,101546.84
2022-10-28T05:38:20.753Z,101542.53
2022-10-28T05:38:52.531Z,101547.84
2022-10-28T05:39:24.046Z,101547.25
2022-10-28T05:39:55.692Z,101541.91
2022-10-28T05:40:27.388Z,101545.59
2022-10-28T05:40:58.918Z,101545.41
2022-10-28T05:41:33.060Z,101541.09
2022-10-28T05:42:06.726Z,101541.91
2022-10-28T05:42:45.022Z,101538.63
2022-10-28T05:43:16.864Z,101540.28
2022-10-28T05:43:48.352Z,101550.94
2022-10-28T05:44:19.920Z,101542.94
2022-10-28T05:44:51.440Z,101538.63
2022-10-28T05:45:22.991Z,101548.44
2022-10-28T05:45:58.070Z,101542.28
2022-10-28T05:46:29.600Z,101542.28
2022-10-28T05:47:01.115Z,101542.69
2022-10-28T05:47:34.267Z,101538.19
2022-10-28T05:48:08.098Z,101545.16
2022-10-28T05:48:39.617Z,101539.84
2022-10-28T05:49:11.108Z,101542.72
2022-10-28T05:49:42.635Z,101542.91
2022-10-28T05:50:15.629Z,101539.22
2022-10-28T05:50:47.489Z,101535.53
2022-10-28T05:51:19.259Z,101538.19
2022-10-28T05:51:50.828Z,101532.25
2022-10-28T05:52:22.400Z,101543.72
2022-10-28T05:52:56.285Z,101544.75
2022-10-28T05:53:27.789Z,101533.88
2022-10-28T05:53:59.320Z,101542.50
2022-10-28T05:54:30.878Z,101539.84
2022-10-28T05:55:02.396Z,101546.19
2022-10-28T05:55:35.307Z,101536.75
2022-10-28T05:56:07.063Z,101544.75
2022-10-28T05:56:38.615Z,101542.91
2022-10-28T05:57:10.134Z,101546.59
2022-10-28T05:57:41.739Z,101540.88
2022-10-28T05:58:13.509Z,101542.09
2022-10-28T05:58:45.069Z,101538.59
2022-10-28T05:59:16.669Z,101537.78
2022-10-28T05:59:48.176Z,101533.06
2022-10-28T06:00:21.972Z,101540.44
2022-10-28T06:00:53.452Z,101545.16
2022-10-28T06:01:25.049Z,101540.66
2022-10-28T06:01:56.741Z,101536.16
2022-10-28T06:02:28.316Z,101537.78
2022-10-28T06:03:10.164Z,101541.06
2022-10-28T06:03:41.796Z,101545.59
2022-10-28T06:04:13.595Z,101541.88
2022-10-28T06:04:45.216Z,101545.16
2022-10-28T06:05:17.191Z,101544.75
2022-10-28T06:05:48.724Z,101550.72
2022-10-28T06:06:20.252Z,101532.84
2022-10-28T06:06:54.844Z,101540.66
2022-10-28T06:07:29.098Z,101539.00
2022-10-28T06:08:00.858Z,101543.31
2022-10-28T06:08:32.370Z,101538.19
2022-10-28T06:09:04.482Z,101535.31
2022-10-28T06:09:36.215Z,101535.31
2022-10-28T06:10:09.708Z,101542.28
2022-10-28T06:10:41.898Z,101536.75
2022-10-28T06:11:12.035Z,101538.41
2022-10-28T06:11:43.599Z,101542.91
2022-10-28T06:12:15.750Z,101531.22
2022-10-28T06:12:47.264Z,101534.72
2022-10-28T06:13:19.144Z,101536.34
2022-10-28T06:13:50.888Z,101534.72
2022-10-28T06:14:22.441Z,101530.41
2022-10-28T06:14:54.045Z,101537.38
2022-10-28T06:15:26.187Z,101536.34
2022-10-28T06:15:57.810Z,101541.88
2022-10-28T06:16:29.413Z,101534.91
2022-10-28T06:17:03.270Z,101538.00
2022-10-28T06:17:35.272Z,101540.88
2022-10-28T06:18:07.142Z,101539.00
2022-10-28T06:18:39.263Z,101547.63
2022-10-28T06:19:11.388Z,101551.31
2022-10-28T06:19:43.549Z,101542.28
2022-10-28T06:20:16.153Z,101543.94
2022-10-28T06:20:55.779Z,101545.56
2022-10-28T06:21:27.727Z,101543.53
2022-10-28T06:21:59.469Z,101548.66
2022-10-28T06:22:31.381Z,101549.28
2022-10-28T06:23:02.952Z,101552.16
2022-10-28T06:23:34.611Z,101548.44
2022-10-28T06:24:09.852Z,101550.09
2022-10-28T06:24:44.169Z,101542.91
2022-10-28T06:25:16.689Z,101545.59
2022-10-28T06:25:48.924Z,101542.53
2022-10-28T06:26:20.738Z,101547.66
2022-10-28T06:26:52.574Z,101541.91
2022-10-28T06:27:24.175Z,101548.69
2022-10-28T06:27:57.337Z,101539.44
2022-10-28T06:28:29.268Z,101545.16
2022-10-28T06:29:00.849Z,101548.06
2022-10-28T06:29:32.993Z,101554.00
2022-10-28T06:30:05.269Z,101547.84
2022-10-28T06:30:36.778Z,101549.28
2022-10-28T06:31:08.377Z,101554.59
2022-10-28T06:31:40.840Z,101558.75
2022-10-28T06:32:13.209Z,101551.78
2022-10-28T06:32:44.768Z,101552.81
2022-10-28T06:33:16.366Z,101546.44
2022-10-28T06:33:47.836Z,101546.44
2022-10-28T06:34:19.412Z,101552.19
2022-10-28T06:34:50.942Z,101551.56